createdAt,value
2022-12-07T00:00:51.819Z,3.8
2022-12-07T00:02:55.727Z,3.9
2022-12-07T00:06:02.901Z,3.9
2022-12-07T00:10:10.895Z,3.9
2022-12-07T00:14:21.682Z,3.9
2022-12-07T00:20:33.158Z,3.9
2022-12-07T00:22:37.094Z,3.9
2022-12-07T00:24:41.010Z,3.9
2022-12-07T00:26:47.844Z,3.8
2022-12-07T00:28:51.669Z,3.8
2022-12-07T00:30:55.475Z,3.7
2022-12-07T00:32:59.295Z,3.8
2022-12-07T00:35:03.118Z,3.8
2022-12-07T00:37:07.032Z,3.8
2022-12-07T00:39:10.959Z,3.8
2022-12-07T00:41:17.805Z,3.8
2022-12-07T00:43:21.632Z,3.7
2022-12-07T00:45:25.545Z,3.7
2022-12-07T00:47:29.371Z,3.7
2022-12-07T00:49:33.190Z,3.7
2022-12-07T00:51:37.016Z,3.7
2022-12-07T00:53:41.971Z,3.7
2022-12-07T00:55:47.680Z,3.5
2022-12-07T00:57:51.475Z,3.6
2022-12-07T00:59:55.314Z,3.6
2022-12-07T01:03:02.917Z,3.6
2022-12-07T01:05:06.597Z,3.6
2022-12-07T01:07:10.400Z,3.7
2022-12-07T01:11:21.169Z,3.8
2022-12-07T01:13:24.990Z,3.9
2022-12-07T01:15:28.804Z,3.8
2022-12-07T01:17:32.635Z,3.9
2022-12-07T01:21:40.243Z,3.9
2022-12-07T01:23:47.089Z,3.8
2022-12-07T01:25:50.930Z,3.8
2022-12-07T01:27:54.817Z,3.9
2022-12-07T01:29:58.769Z,3.8
2022-12-07T01:32:02.536Z,3.9
2022-12-07T01:34:06.389Z,3.9
2022-12-07T01:36:10.312Z,3.8
2022-12-07T01:38:17.351Z,3.8
2022-12-07T01:40:21.162Z,3.8
2022-12-07T01:42:25.075Z,3.9
2022-12-07T01:44:28.908Z,3.9
2022-12-07T01:46:32.795Z,3.8
2022-12-07T01:48:36.634Z,3.9
2022-12-07T01:50:40.461Z,3.8
2022-12-07T01:54:51.117Z,3.7
2022-12-07T01:59:18.877Z,3.8
2022-12-07T02:01:22.714Z,3.8
2022-12-07T02:03:26.502Z,3.9
2022-12-07T02:05:33.348Z,3.9
2022-12-07T02:07:37.208Z,3.9
2022-12-07T02:09:40.980Z,4
2022-12-07T02:11:44.789Z,3.9
2022-12-07T02:13:48.721Z,4
2022-12-07T02:15:52.718Z,4
2022-12-07T02:17:56.448Z,4.1
2022-12-07T02:20:03.748Z,4.1
2022-12-07T02:22:07.144Z,4.1
2022-12-07T02:24:10.982Z,4
2022-12-07T02:26:14.813Z,4
2022-12-07T02:28:18.601Z,3.9
2022-12-07T02:30:22.436Z,3.9
2022-12-07T02:32:26.271Z,3.9
2022-12-07T02:38:40.962Z,3.8
2022-12-07T02:40:44.776Z,3.7
2022-12-07T02:44:52.425Z,3.7
2022-12-07T02:53:10.730Z,3.7
2022-12-07T02:54:14.137Z,3.8
2022-12-07T02:56:18.090Z,3.8
2022-12-07T02:58:21.763Z,3.8
2022-12-07T03:00:25.598Z,3.8
2022-12-07T03:02:32.517Z,3.9
2022-12-07T03:08:43.893Z,4
2022-12-07T03:10:47.725Z,4
2022-12-07T03:12:51.648Z,4
2022-12-07T03:14:55.470Z,4
2022-12-07T03:23:13.926Z,4.1
2022-12-07T03:27:21.540Z,4.1
2022-12-07T03:29:25.395Z,4.1
2022-12-07T03:31:32.343Z,4.1
2022-12-07T03:33:36.090Z,4.1
2022-12-07T03:35:39.922Z,4
2022-12-07T03:37:43.754Z,3.9
2022-12-07T03:39:47.565Z,3.9
2022-12-07T03:41:51.409Z,3.8
2022-12-07T03:43:55.353Z,3.7
2022-12-07T03:46:02.493Z,3.6
2022-12-07T03:48:06.021Z,3.6
2022-12-07T03:50:09.948Z,3.6
2022-12-07T03:55:21.111Z,3.6
2022-12-07T03:57:24.955Z,3.6
2022-12-07T03:59:31.777Z,3.6
2022-12-07T04:01:35.652Z,3.6
2022-12-07T04:05:43.229Z,3.8
2022-12-07T04:07:47.119Z,3.8
2022-12-07T04:09:50.937Z,3.8
2022-12-07T04:14:01.548Z,3.9
2022-12-07T04:20:13.228Z,3.8
2022-12-07T04:22:17.041Z,3.8
2022-12-07T04:24:20.838Z,3.7
2022-12-07T04:26:24.656Z,3.6
2022-12-07T04:28:31.596Z,3.4
2022-12-07T04:30:35.426Z,3.4
2022-12-07T04:32:39.262Z,3.2
2022-12-07T04:34:43.087Z,3.1
2022-12-07T04:36:46.979Z,3
2022-12-07T04:38:50.867Z,2.8
2022-12-07T04:43:01.512Z,2.6
2022-12-07T04:45:05.302Z,2.6
2022-12-07T04:47:09.237Z,2.7
2022-12-07T04:48:12.514Z,2.6
2022-12-07T04:50:16.392Z,2.6
2022-12-07T04:52:20.153Z,2.7
2022-12-07T04:54:23.932Z,2.7
2022-12-07T04:56:30.842Z,2.7
2022-12-07T04:58:34.638Z,2.8
2022-12-07T05:00:38.495Z,2.8
2022-12-07T05:02:42.255Z,2.7
2022-12-07T05:04:46.131Z,2.6
2022-12-07T05:06:50.039Z,2.6
2022-12-07T05:08:53.819Z,2.5
2022-12-07T05:13:06.059Z,2.4
2022-12-07T05:15:09.959Z,2.4
2022-12-07T05:17:13.768Z,2.4
2022-12-07T05:19:17.645Z,2.4
2022-12-07T05:21:21.418Z,2.4
2022-12-07T05:23:25.281Z,2.3
2022-12-07T05:25:32.319Z,2.4
2022-12-07T05:27:36.215Z,2.5
2022-12-07T05:31:44.066Z,2.5
2022-12-07T05:35:51.696Z,2.4
2022-12-07T05:37:55.496Z,2.4
2022-12-07T05:40:02.626Z,2.2
2022-12-07T05:46:32.226Z,2.3
2022-12-07T05:54:50.807Z,2.4
2022-12-07T05:56:54.694Z,2.4
2022-12-07T05:58:58.456Z,2.5
2022-12-07T06:01:02.340Z,2.5
2022-12-07T06:03:06.285Z,2.5
2022-12-07T06:05:09.960Z,2.6
2022-12-07T06:09:20.820Z,2.5
2022-12-07T06:11:24.564Z,2.4
2022-12-07T06:13:28.338Z,2.4
2022-12-07T06:15:32.221Z,2.4
2022-12-07T06:23:50.386Z,2.2
2022-12-07T06:30:02.502Z,2.2
2022-12-07T06:38:20.526Z,2.2
2022-12-07T06:41:27.960Z,2.1
2022-12-07T06:43:31.727Z,2
2022-12-07T06:45:35.616Z,2
2022-12-07T06:55:57.908Z,2
2022-12-07T07:00:06.049Z,2
2022-12-07T07:02:09.437Z,2
2022-12-07T07:04:16.351Z,2.1
2022-12-07T07:10:27.792Z,2
2022-12-07T07:12:31.641Z,2
2022-12-07T07:14:35.474Z,1.9
2022-12-07T07:18:46.212Z,1.9
2022-12-07T07:20:50.041Z,1.9
2022-12-07T07:24:57.622Z,1.9
2022-12-07T07:29:05.285Z,1.8
2022-12-07T07:31:09.206Z,1.9
2022-12-07T07:33:16.123Z,1.9
2022-12-07T07:35:19.856Z,1.9
2022-12-07T07:37:23.707Z,2
2022-12-07T07:38:27.184Z,2
2022-12-07T07:42:34.850Z,2.2
2022-12-07T07:44:38.684Z,2.1
2022-12-07T07:46:45.557Z,2.3
2022-12-07T07:48:49.318Z,2.4
2022-12-07T07:50:53.117Z,2.5
2022-12-07T07:52:56.998Z,2.6
2022-12-07T07:59:08.562Z,2.8
2022-12-07T08:01:15.491Z,2.9
2022-12-07T08:03:19.304Z,2.9
2022-12-07T08:05:23.185Z,3
2022-12-07T08:07:27.052Z,3
2022-12-07T08:09:30.794Z,3
2022-12-07T08:11:35.061Z,3.1
2022-12-07T08:13:38.824Z,3
2022-12-07T08:15:45.787Z,3.1
2022-12-07T08:17:49.573Z,3.1
2022-12-07T08:19:53.283Z,3
2022-12-07T08:21:57.116Z,3.1
2022-12-07T08:24:00.962Z,3.1
2022-12-07T08:26:04.828Z,3.2
2022-12-07T08:28:08.708Z,3.2
2022-12-07T08:30:15.620Z,3.2
2022-12-07T08:32:19.491Z,3.3
2022-12-07T08:34:23.383Z,3.4
2022-12-07T08:35:26.896Z,3.5
2022-12-07T08:37:30.793Z,3.5
2022-12-07T08:39:34.554Z,3.6
2022-12-07T08:41:38.409Z,3.7
2022-12-07T08:45:48.994Z,3.8
2022-12-07T08:47:52.783Z,3.8
2022-12-07T08:49:56.594Z,3.8
2022-12-07T08:52:00.396Z,3.7
2022-12-07T08:54:04.328Z,3.7
2022-12-07T08:56:08.127Z,3.6
2022-12-07T08:58:14.953Z,3.5
2022-12-07T09:00:18.773Z,3.5
2022-12-07T09:02:22.597Z,3.5
2022-12-07T09:06:30.374Z,3.5
2022-12-07T09:08:34.130Z,3.5
2022-12-07T09:10:37.962Z,3.5
2022-12-07T09:12:44.796Z,3.6
2022-12-07T09:16:52.400Z,3.6
2022-12-07T09:18:56.232Z,3.6
2022-12-07T09:21:00.069Z,3.6
2022-12-07T09:23:03.865Z,3.7
2022-12-07T09:25:07.674Z,3.8
2022-12-07T09:27:14.564Z,3.7
2022-12-07T09:29:18.323Z,3.8
2022-12-07T09:31:24.371Z,3.9
2022-12-07T09:33:46.615Z,4.1
2022-12-07T09:35:50.444Z,4.1
2022-12-07T09:37:54.246Z,4.2
2022-12-07T09:40:01.106Z,4.3
2022-12-07T09:42:04.928Z,4.3
2022-12-07T09:44:08.747Z,4.3
2022-12-07T09:46:12.635Z,4.4
2022-12-07T09:48:16.385Z,4.6
2022-12-07T09:50:20.245Z,4.7
2022-12-07T09:52:24.073Z,4.8
2022-12-07T09:54:30.932Z,4.8
2022-12-07T09:56:34.741Z,4.8
2022-12-07T09:58:38.565Z,4.9
2022-12-07T10:00:42.468Z,5
2022-12-07T10:02:46.287Z,5.2
2022-12-07T10:04:50.201Z,5.5
2022-12-07T10:06:53.986Z,5.8
2022-12-07T10:09:00.855Z,6.1
2022-12-07T10:11:04.746Z,5.9
2022-12-07T10:13:08.629Z,5.8
2022-12-07T10:15:12.524Z,5.6
2022-12-07T10:17:16.390Z,5.5
2022-12-07T10:19:20.286Z,5.4
2022-12-07T10:21:24.156Z,5.2
2022-12-07T10:23:31.078Z,5.2
2022-12-07T10:25:34.971Z,5.1
2022-12-07T10:27:38.836Z,5.2
2022-12-07T10:30:46.181Z,5.5
2022-12-07T10:34:53.966Z,6.3
2022-12-07T10:39:04.759Z,7.4
2022-12-07T10:41:08.671Z,7.7
2022-12-07T10:43:12.585Z,7.1
2022-12-07T10:45:16.790Z,6.5
2022-12-07T10:47:20.475Z,6.2
2022-12-07T10:49:24.280Z,6.2
2022-12-07T10:51:34.682Z,6.1
2022-12-07T10:53:35.117Z,6.3
2022-12-07T10:55:39.036Z,6.1
2022-12-07T10:59:46.845Z,6.2
2022-12-07T11:01:50.777Z,6.1
2022-12-07T11:03:54.659Z,6.1
2022-12-07T11:12:14.827Z,5.8
2022-12-07T11:14:18.722Z,5.7
2022-12-07T11:16:22.646Z,5.6
2022-12-07T11:18:26.502Z,5.7
2022-12-07T11:22:37.328Z,5.8
2022-12-07T11:25:44.662Z,5.8
2022-12-07T11:27:48.532Z,5.8
2022-12-07T11:29:52.423Z,5.9
2022-12-07T11:31:56.424Z,6
2022-12-07T11:34:03.239Z,6.1
2022-12-07T11:36:07.137Z,6.2
2022-12-07T11:38:11.033Z,6.2
2022-12-07T11:40:14.960Z,6.1
2022-12-07T11:42:18.866Z,6
2022-12-07T11:44:27.185Z,5.9
2022-12-07T11:46:26.693Z,5.9
2022-12-07T11:50:37.452Z,6.1
2022-12-07T11:52:41.386Z,6.2
2022-12-07T11:54:45.272Z,6.2
2022-12-07T11:56:49.148Z,6.4
2022-12-07T11:58:53.062Z,6.6
2022-12-07T12:00:56.945Z,6.8
2022-12-07T12:03:03.914Z,6.9
2022-12-07T12:05:07.781Z,6.9
2022-12-07T12:09:40.398Z,7.3
2022-12-07T12:11:19.530Z,7.6
2022-12-07T12:15:27.369Z,7.4
2022-12-07T12:17:34.339Z,7.5
2022-12-07T12:21:42.201Z,7
2022-12-07T12:24:49.580Z,6.8
2022-12-07T12:28:57.490Z,6.8
2022-12-07T12:31:04.454Z,6.8
2022-12-07T12:37:16.267Z,7.1
2022-12-07T12:39:20.392Z,7.2
2022-12-07T12:41:24.162Z,7.3
2022-12-07T12:43:28.115Z,7.2
2022-12-07T12:45:35.133Z,7.1
2022-12-07T12:49:42.968Z,7.4
2022-12-07T12:51:46.921Z,7.9
2022-12-07T12:53:50.872Z,7.9
2022-12-07T12:55:54.800Z,7.5
2022-12-07T13:00:05.715Z,6.9
2022-12-07T13:04:13.694Z,7
2022-12-07T13:06:17.568Z,6.9
2022-12-07T13:08:21.565Z,7
2022-12-07T13:10:25.479Z,7
2022-12-07T13:12:29.450Z,7
2022-12-07T13:14:36.378Z,7.2
2022-12-07T13:16:40.378Z,7.2
2022-12-07T13:18:44.294Z,7.2
2022-12-07T13:21:02.504Z,7.1
2022-12-07T13:23:06.474Z,7.1
2022-12-07T13:25:10.400Z,7.2
2022-12-07T13:29:21.354Z,7.2
2022-12-07T13:31:25.437Z,7.1
2022-12-07T13:33:29.241Z,7.1
2022-12-07T13:35:33.192Z,7.2
2022-12-07T13:37:38.924Z,7.3
2022-12-07T13:39:41.111Z,7.5
2022-12-07T13:50:03.888Z,6.7
2022-12-07T13:52:07.867Z,6.8
2022-12-07T13:54:11.830Z,6.7
2022-12-07T13:56:18.799Z,6.8
2022-12-07T13:58:22.752Z,6.8
2022-12-07T14:00:26.721Z,6.9
2022-12-07T14:04:34.665Z,6.9
2022-12-07T14:06:38.551Z,6.9
2022-12-07T14:10:49.512Z,6.6
2022-12-07T14:12:53.451Z,6.6
2022-12-07T14:16:00.894Z,6.6
2022-12-07T14:18:04.831Z,6.5
2022-12-07T14:20:08.845Z,6.5
2022-12-07T14:22:12.788Z,6.4
2022-12-07T14:24:19.712Z,6.3
2022-12-07T14:26:23.699Z,6.3
2022-12-07T14:28:27.641Z,6.3
2022-12-07T14:30:31.728Z,6.3
2022-12-07T14:32:35.526Z,6.1
2022-12-07T14:34:39.465Z,6
2022-12-07T14:38:50.363Z,5.4
2022-12-07T14:40:54.299Z,5.3
2022-12-07T14:42:58.243Z,5.3
2022-12-07T14:49:34.554Z,5.1
2022-12-07T14:57:28.618Z,4.8
2022-12-07T15:01:36.410Z,4.7
2022-12-07T15:03:40.375Z,4.6
2022-12-07T15:05:44.197Z,4.5
2022-12-07T15:07:51.166Z,4.5
2022-12-07T15:13:02.316Z,4.4
2022-12-07T15:15:06.290Z,4.4
2022-12-07T15:17:15.842Z,4.4
2022-12-07T15:19:28.430Z,4.4
2022-12-07T15:21:20.874Z,4.3
2022-12-07T15:23:24.711Z,4.3
2022-12-07T15:25:28.554Z,4.3
2022-12-07T15:27:32.428Z,4.3
2022-12-07T15:29:36.287Z,4.3
2022-12-07T15:31:55.288Z,4.3
2022-12-07T15:33:44.010Z,4.3
2022-12-07T15:35:50.881Z,4.3
2022-12-07T15:37:54.777Z,4.3
2022-12-07T15:40:02.682Z,4.3
2022-12-07T15:42:02.479Z,4.4
2022-12-07T15:44:06.325Z,4.4
2022-12-07T15:46:10.204Z,4.5
2022-12-07T15:48:29.148Z,4.4
2022-12-07T15:50:20.929Z,4.4
2022-12-07T15:52:24.789Z,4.4
2022-12-07T15:54:28.657Z,4.4
2022-12-07T15:56:32.518Z,4.5
2022-12-07T15:58:36.397Z,4.4
2022-12-07T16:00:40.233Z,4.4
2022-12-07T16:04:50.986Z,4.4
2022-12-07T16:06:54.865Z,4.4
2022-12-07T16:10:02.190Z,4.3
2022-12-07T16:12:06.052Z,4.3
2022-12-07T16:14:09.900Z,4.3
2022-12-07T16:16:13.889Z,4.3
2022-12-07T16:18:20.701Z,4.2
2022-12-07T16:20:24.558Z,4.2
2022-12-07T16:22:28.438Z,4.2
2022-12-07T16:24:32.326Z,4.2
2022-12-07T16:26:36.187Z,4.2
2022-12-07T16:28:40.046Z,4.2
2022-12-07T16:30:43.909Z,4.2
2022-12-07T16:32:50.809Z,4.2
2022-12-07T16:34:54.664Z,4.2
2022-12-07T16:37:05.576Z,4.2
2022-12-07T16:39:02.375Z,4.2
2022-12-07T16:41:06.251Z,4.2
2022-12-07T16:43:10.654Z,4.1
2022-12-07T16:45:19.119Z,4.1
2022-12-07T16:47:20.961Z,4
2022-12-07T16:49:24.824Z,4
2022-12-07T16:51:28.678Z,4
2022-12-07T16:53:32.651Z,4
2022-12-07T16:55:36.531Z,4
2022-12-07T16:57:40.380Z,4
2022-12-07T17:01:51.105Z,4
2022-12-07T17:03:56.576Z,4
2022-12-07T17:06:00.364Z,4
2022-12-07T17:14:38.962Z,3.9
2022-12-07T17:16:42.862Z,3.9
2022-12-07T17:18:46.571Z,3.9
2022-12-07T17:20:50.435Z,3.9
2022-12-07T17:22:54.300Z,3.9
2022-12-07T17:24:58.129Z,3.9
2022-12-07T17:29:08.974Z,3.9
2022-12-07T17:31:12.902Z,3.8
2022-12-07T17:33:16.621Z,3.8
2022-12-07T17:35:20.452Z,3.8
2022-12-07T17:37:24.315Z,3.9
2022-12-07T17:39:28.149Z,3.9
2022-12-07T17:41:31.998Z,3.9
2022-12-07T17:43:38.833Z,3.9
2022-12-07T17:45:42.861Z,4
2022-12-07T17:47:46.530Z,3.9
2022-12-07T17:49:50.366Z,3.9
2022-12-07T17:51:54.303Z,3.8
2022-12-07T17:53:58.113Z,3.8
2022-12-07T17:56:27.535Z,3.8
2022-12-07T17:58:08.843Z,3.8
2022-12-07T18:03:19.989Z,3.8
2022-12-07T18:05:23.931Z,3.8
2022-12-07T18:07:27.720Z,3.8
2022-12-07T18:11:38.382Z,3.7
2022-12-07T18:15:46.048Z,3.7
2022-12-07T18:17:49.877Z,3.7
2022-12-07T18:19:53.727Z,3.7
2022-12-07T18:21:57.651Z,3.7
2022-12-07T18:24:01.477Z,3.7
2022-12-07T18:26:08.548Z,3.7
2022-12-07T18:28:12.375Z,3.7
2022-12-07T18:30:16.342Z,3.7
2022-12-07T18:36:27.886Z,3.7
2022-12-07T18:38:31.818Z,3.7
2022-12-07T18:40:38.648Z,3.6
2022-12-07T18:42:42.513Z,3.7
2022-12-07T18:44:46.431Z,3.6
2022-12-07T18:46:50.355Z,3.6
2022-12-07T18:48:54.256Z,3.6
2022-12-07T18:50:58.112Z,3.6
2022-12-07T18:53:01.914Z,3.6
2022-12-07T18:55:08.764Z,3.6
2022-12-07T18:59:16.408Z,3.5
2022-12-07T19:00:19.842Z,3.6
2022-12-07T19:02:23.749Z,3.5
2022-12-07T19:04:27.461Z,3.6
2022-12-07T19:06:31.286Z,3.6
2022-12-07T19:08:38.250Z,3.6
2022-12-07T19:10:42.052Z,3.5
2022-12-07T19:12:45.915Z,3.6
2022-12-07T19:14:49.699Z,3.5
2022-12-07T19:16:53.656Z,3.5
2022-12-07T19:18:57.319Z,3.5
2022-12-07T19:21:01.149Z,3.6
2022-12-07T19:23:08.102Z,3.6
2022-12-07T19:25:11.915Z,3.6
2022-12-07T19:27:15.749Z,3.6
2022-12-07T19:29:19.668Z,3.6
2022-12-07T19:31:23.581Z,3.6
2022-12-07T19:33:27.324Z,3.6
2022-12-07T19:35:31.224Z,3.6
2022-12-07T19:37:37.975Z,3.6
2022-12-07T19:39:41.815Z,3.6
2022-12-07T19:41:45.631Z,3.6
2022-12-07T19:43:49.453Z,3.6
2022-12-07T19:45:53.315Z,3.6
2022-12-07T19:47:57.100Z,3.6
2022-12-07T19:52:07.759Z,3.7
2022-12-07T19:54:11.679Z,3.6
2022-12-07T19:56:15.506Z,3.6
2022-12-07T19:57:18.921Z,3.7
2022-12-07T19:59:22.753Z,3.7
2022-12-07T20:01:26.642Z,3.7
2022-12-07T20:03:30.413Z,3.6
2022-12-07T20:11:48.704Z,3.6
2022-12-07T20:16:18.030Z,3.6
2022-12-07T20:18:00.193Z,3.5
2022-12-07T20:20:07.024Z,3.6
2022-12-07T20:30:26.312Z,3.6
2022-12-07T20:34:37.047Z,3.5
2022-12-07T20:36:40.887Z,3.5
2022-12-07T20:38:44.711Z,3.4
2022-12-07T20:40:48.569Z,3.5
2022-12-07T20:42:52.368Z,3.5
2022-12-07T20:45:01.304Z,3.4
2022-12-07T20:46:59.987Z,3.5
2022-12-07T20:49:07.054Z,3.4
2022-12-07T20:51:10.873Z,3.4
2022-12-07T20:53:14.719Z,3.5
2022-12-07T20:57:36.678Z,3.4
2022-12-07T20:59:41.854Z,3.4
2022-12-07T21:01:47.410Z,3.4
2022-12-07T21:12:06.601Z,3.4
2022-12-07T21:14:10.439Z,3.4
2022-12-07T21:16:17.491Z,3.4
2022-12-07T21:18:21.285Z,3.3
2022-12-07T21:22:29.061Z,3.3
2022-12-07T21:24:32.844Z,3.3
2022-12-07T21:26:36.660Z,3.3
2022-12-07T21:28:40.496Z,3.3
2022-12-07T21:31:11.951Z,3.3
2022-12-07T21:41:06.479Z,3.3
2022-12-07T21:43:10.279Z,3.3
2022-12-07T21:45:17.166Z,3.3
2022-12-07T21:47:20.967Z,3.3
2022-12-07T21:50:28.303Z,3.2
2022-12-07T21:52:32.094Z,3.2
2022-12-07T21:54:36.068Z,3.2
2022-12-07T21:56:39.937Z,3.1
2022-12-07T21:58:46.765Z,3.1
2022-12-07T22:00:50.678Z,3.1
2022-12-07T22:02:54.505Z,3
2022-12-07T22:04:58.281Z,3
2022-12-07T22:07:02.076Z,3
2022-12-07T22:09:05.896Z,3
2022-12-07T22:11:09.687Z,2.9
2022-12-07T22:13:16.599Z,2.9
2022-12-07T22:15:20.517Z,2.9
2022-12-07T22:17:24.320Z,2.9
2022-12-07T22:19:28.124Z,2.9
2022-12-07T22:21:32.033Z,2.8
2022-12-07T22:23:35.878Z,2.8
2022-12-07T22:25:39.683Z,2.8
2022-12-07T22:27:46.473Z,2.8
2022-12-07T22:29:50.300Z,2.8
2022-12-07T22:31:54.619Z,2.8
2022-12-07T22:33:57.940Z,2.7
2022-12-07T22:36:01.865Z,2.7
2022-12-07T22:38:11.369Z,2.7
2022-12-07T22:40:09.505Z,2.7
2022-12-07T22:42:16.515Z,2.6
2022-12-07T22:44:20.280Z,2.6
2022-12-07T22:46:24.192Z,2.6
2022-12-07T22:47:27.465Z,2.6
2022-12-07T22:49:31.326Z,2.6
2022-12-07T22:53:39.016Z,2.6
2022-12-07T22:55:45.895Z,2.5
2022-12-07T22:57:49.788Z,2.5
2022-12-07T23:01:59.062Z,2.6
2022-12-07T23:04:03.028Z,2.5
2022-12-07T23:08:10.786Z,2.5
2022-12-07T23:10:17.563Z,2.4
2022-12-07T23:12:21.344Z,2.4
2022-12-07T23:14:25.230Z,2.3
2022-12-07T23:16:29.259Z,2.3
2022-12-07T23:20:36.799Z,2.3
2022-12-07T23:22:40.648Z,2.3
2022-12-07T23:24:47.565Z,2.4
2022-12-07T23:26:51.417Z,2.3
2022-12-07T23:28:55.336Z,2.2
2022-12-07T23:30:59.163Z,2.2
2022-12-07T23:33:03.047Z,2.2
2022-12-07T23:35:06.930Z,2.2
2022-12-07T23:37:10.571Z,2.2
2022-12-07T23:39:17.379Z,2.2
2022-12-07T23:41:21.263Z,2.2
2022-12-07T23:43:25.112Z,2.3
2022-12-07T23:46:32.589Z,2.3
2022-12-07T23:48:36.337Z,2.3
2022-12-07T23:50:40.115Z,2.3
2022-12-07T23:58:58.583Z,2.3
